Current Conditions

Updated: 19-Jul-2019 2:22 PM  
Summary / Temperature Wind Rain






Feels like: 93°F

1-hour difference
1.4°F 1.4°F warmer than last hour.

24-hour difference
3.3°F3.3°F colder than yesterday at this time.

  Today Yesterday
High: 93.2°F
2:17 PM
98.5°F
3:51 PM
Low: 62.8°F
5:54 AM
65.1°F
5:01 AM
Wind from NW NW
0.6
Gust:  2.0 mph
0 Beaufort - Calm

Today: 7.0 - 8:15 AM
Month: 11.0 mph - Jul 1
Rain Today: 0.00 in
Current Rate (/hr): 0.000 in
Max Rate (/hr):
Rain Yesterday: 0.00 in
Storm Rain: 0.00 in
This Month: 0.00 in
Season Total: 12.01 in
Last Rain Event: 50 days ago
Humidity / Barometer Sun / Moon
Humidity: 34  
Dew Point: 60.4°F Increased 1.0°F in the last hour.
Barometer: 29.786 inHg  
Baro Trend: Falling slowly
Sunrise: 5:53 AM
Sunset: 8:12 PM
Moonrise: 9:45 PM
Moonset: 8:21 AM
Sky Conditions UV Index
Summary: Clear
Visibility: 10 miles
Clouds: None
KVIS - 1:56 PM PDT
Current: 9.0  Very High 
Friday: 10.4  Very High 
Saturday: 10.2  Very High 
Air Quality Fire Danger
 Good 
Ozone 46 ppb
PM 2.5 6 μg/m3
2:20 PM PDT
Current: 63  Moderate 

Local Alerts Local Forecast
Local NWS Alerts
Today

Sunny

High 96
Tonight

Clear

Low 61
Sat

Sunny

High 96
Sat night

Clear

Low 64
Sun

Mostly
Sunny
High 100
Sun night

Partly
Cloudy
Low 67
Mon

Mostly
Sunny
High 102

Local Radar Local Satellite Neighborhood Cam Sky Cam
Local Radar Local Satellite Neighborhood Cam Sky Cam


Nearby Airport Stations

KVIS - Visalia, California, USA
Distance from station: W 14mi, 23km
Updated: Fri, 19-Jul-2019 1:56pm PDT
Clear
Clear
 Wind from varies
Wind: varies 6 mph , 9 km/h
Temperature: 90°F , 32°C
Dew Point: 52°F , 11°C
Humidity: 27%
Barometer: 29.84 inHg , 1010.5 hPa
Clouds: Clear
Visibility: 10 miles , 16 km
2019/07/19 20:56 KVIS 192056Z AUTO VRB05KT 10SM CLR 32/11 A2984 RMK AO2 SLP107 T03220106 58014
KPTV - Porterville, California, USA
Distance from station: SSE 19mi, 31km
Updated: Fri, 19-Jul-2019 1:56pm PDT
Clear
Clear
 Wind from NNW
Wind: NNW 7 mph , 11 km/h
Temperature: 91°F , 33°C
Dew Point: 54°F , 12°C
Humidity: 28%
Barometer: 29.84 inHg , 1010.5 hPa
Clouds: Clear
Visibility: 10 miles , 16 km
2019/07/19 20:56 KPTV 192056Z AUTO 33006KT 10SM CLR 33/12 A2984 RMK AO2 SLP111 T03330117 58016

Metar display script from Saratoga-Weather.org



Visitor Map